РУС

ENG

 
  Pireps - S7
 

Рейс SBI5067

  • Выполнял: Kirill Spirin
  • Аэропорт отправления: Kazan Mezhdunarodniy (UWKD)
  • Аэропорт назначения: Domodedovo Airport (UUDD)
  • Тип ВС: A320-214 (VQ-BOA)
  • Время полёта: 01.52
  • Дата полёта: 28.10.2021
  • Маршрут: FLIGHT PLAN
  • Статус: Одобрен

Детали полёта
Gross Revenue:
(125 load / $ 210.00 per unit
$ 26, 250.00
Fuel Cost:
(4584 fuel used @ 5.1 / unit)
$ 23, 378.40


Дополнительная информация о полёте:

Лог

Aircraft Used in flight is Airbus A320 NIKI OE-LEA
13:36 Boarding
13:36 Navigation Lights ON at 430 AGL
13:36 Beacon Lights ON at 430 AGL
13:36 Brakes are On
13:43 Brakes are Released
13:44 Engine 2 Started
13:45 Engine 1 Started
13:45Flaps 1 Selected at 430ft and 0kts
13:45Flaps 2 Selected at 430ft and 0kts
13:46 Spoilers Armed
13:46 Taxi Lights ON at 430 AGL
13:50 Landing Lights ON at 430 AGL
13:51 You Took off @ 134 Knots and Flaps at Position 2
Departure Weather
UWKD 280630Z 26008MPS 9999 BKN018 06/02 Q1010 R29/2/0050 NOSIG RMK QFE746/0995
13:51 Strobe Lights ON at 430 AGL
13:51 Landing Gear Up @ 161 Knots and 520 Feet
13:51 Taxi Lights OFF at 540 AGL
13:52 You exceeded maximum bank angle
13:52Flaps Retracted at 3370ft and 200kts
13:53 Spoilers Disarmed
13:54 Landing Lights OFF at 6800 AGL
14:17 TOC Reached
14:48 Paused
14:50 Unpaused
15:09 Paused
15:11 Unpaused
15:11Flaps 1 Selected at 4020ft and 201kts
15:13 Landing Gear Down @ 170 Knots and 3990 Feet
15:13Flaps 2 Selected at 4000ft and 168kts
15:13Flaps 3 Selected at 4000ft and 168kts
15:14 Landing Lights ON at 4050 AGL
15:14Flaps 4 Selected at 4020ft and 153kts
15:15Flaps 5 Selected at 4020ft and 145kts
15:26 Spoilers Armed
15:28 You Landed @ 137 Knots and with -250 Vertical Speed
Arrival Weather
UUDD 280600Z 23005MPS 5000 -DZ BR OVC005 06/05 Q1009 R88/290045 NOSIG
15:28 Strobe Lights OFF at 600 AGL
15:29 Landing Lights OFF at 600 AGL
15:29 Taxi Lights ON at 600 AGL
15:29Flaps 3 Selected at 600ft and 16kts
15:29Flaps 1 Selected at 600ft and 15kts
15:29Flaps Retracted at 600ft and 15kts
15:30 Brakes are On
15:31 Taxi Lights OFF at 600 AGL
15:31 Engine 2 Stoped
15:31 Engine 1 Stoped
Pirep logged with S7 Tracking 1.0.0.14



Общая оценка полета : 100%




Route Map



 
 
   
 
Новости

29.12.2021 - C Новым годом

Дорогие друзья, поздравляю вас с Наступающим Новым годом!
Желаем успехов, приятных взлетов и мягких посадок!

   
 
Авторизация






Регистрация

Восстановить пароль?

Мы в соц. сетях

      



   
 





   
 


   
 


Яндекс.Метрика

www.va-s7.ru 2011-2021
Все права защищены.



Минуточку внимания!
Сайт va-s7.ru не является коммерческим проектом. Мы не имеем отношения к торговым маркам "S7" и "Globus" и их представителям.
Эмблемы на сайте являются собственностью соответствующих компаний.

аэронавигационная метеорологическая и любая другая информация с данного ресурса ни в коем случае не должна использоваться для реальных полетов